sensor_id;sensor_type;location;lat;lon;timestamp;temperature;humidity
45207;DHT22;30950;53.086;21.576;2024-03-25T00:00:10;3.50;99.90
45207;DHT22;30950;53.086;21.576;2024-03-25T00:02:57;3.60;99.90
45207;DHT22;30950;53.086;21.576;2024-03-25T00:05:23;3.70;99.90
45207;DHT22;30950;53.086;21.576;2024-03-25T00:07:52;3.60;99.90
45207;DHT22;30950;53.086;21.576;2024-03-25T00:10:18;3.60;99.90
45207;DHT22;30950;53.086;21.576;2024-03-25T00:12:47;3.60;99.90
45207;DHT22;30950;53.086;21.576;2024-03-25T00:15:18;3.60;99.90
45207;DHT22;30950;53.086;21.576;2024-03-25T00:17:49;3.70;99.90
45207;DHT22;30950;53.086;21.576;2024-03-25T00:20:15;3.70;99.90
45207;DHT22;30950;53.086;21.576;2024-03-25T00:22:41;3.70;99.90
45207;DHT22;30950;53.086;21.576;2024-03-25T00:25:08;3.70;99.90
45207;DHT22;30950;53.086;21.576;2024-03-25T00:27:34;3.70;99.90
45207;DHT22;30950;53.086;21.576;2024-03-25T00:30:01;3.70;99.90
45207;DHT22;30950;53.086;21.576;2024-03-25T00:32:27;3.70;99.90
45207;DHT22;30950;53.086;21.576;2024-03-25T00:34:53;3.70;99.90
45207;DHT22;30950;53.086;21.576;2024-03-25T00:37:19;3.70;99.90
45207;DHT22;30950;53.086;21.576;2024-03-25T00:39:46;3.80;99.90
45207;DHT22;30950;53.086;21.576;2024-03-25T00:42:12;3.80;99.90
45207;DHT22;30950;53.086;21.576;2024-03-25T00:44:38;3.80;99.90
45207;DHT22;30950;53.086;21.576;2024-03-25T00:47:05;3.80;99.90
45207;DHT22;30950;53.086;21.576;2024-03-25T00:49:31;3.80;99.90
45207;DHT22;30950;53.086;21.576;2024-03-25T00:51:57;3.80;99.90
45207;DHT22;30950;53.086;21.576;2024-03-25T00:54:23;3.80;99.90
45207;DHT22;30950;53.086;21.576;2024-03-25T00:56:50;3.80;99.90
45207;DHT22;30950;53.086;21.576;2024-03-25T00:59:17;3.80;99.90
45207;DHT22;30950;53.086;21.576;2024-03-25T01:01:43;3.80;99.90
45207;DHT22;30950;53.086;21.576;2024-03-25T01:04:10;3.80;99.90
45207;DHT22;30950;53.086;21.576;2024-03-25T01:06:36;3.80;99.90
45207;DHT22;30950;53.086;21.576;2024-03-25T01:09:02;3.80;99.90
45207;DHT22;30950;53.086;21.576;2024-03-25T01:11:30;3.80;99.90
45207;DHT22;30950;53.086;21.576;2024-03-25T01:13:56;3.80;99.90
45207;DHT22;30950;53.086;21.576;2024-03-25T01:16:23;3.90;99.90
45207;DHT22;30950;53.086;21.576;2024-03-25T01:18:49;3.80;99.90
45207;DHT22;30950;53.086;21.576;2024-03-25T01:21:15;3.90;99.90
45207;DHT22;30950;53.086;21.576;2024-03-25T01:23:41;3.90;99.90
45207;DHT22;30950;53.086;21.576;2024-03-25T01:26:07;3.90;99.90
45207;DHT22;30950;53.086;21.576;2024-03-25T01:28:34;3.90;99.90
45207;DHT22;30950;53.086;21.576;2024-03-25T01:31:01;3.90;99.90
45207;DHT22;30950;53.086;21.576;2024-03-25T01:33:27;3.90;99.90
45207;DHT22;30950;53.086;21.576;2024-03-25T01:35:53;3.70;99.90
45207;DHT22;30950;53.086;21.576;2024-03-25T01:38:21;3.80;99.90
45207;DHT22;30950;53.086;21.576;2024-03-25T01:40:48;3.80;99.90
45207;DHT22;30950;53.086;21.576;2024-03-25T01:43:14;3.80;99.90
45207;DHT22;30950;53.086;21.576;2024-03-25T01:45:40;3.80;99.90
45207;DHT22;30950;53.086;21.576;2024-03-25T01:48:07;3.80;99.90
45207;DHT22;30950;53.086;21.576;2024-03-25T01:50:35;3.80;99.90
45207;DHT22;30950;53.086;21.576;2024-03-25T01:53:02;3.80;99.90
45207;DHT22;30950;53.086;21.576;2024-03-25T01:55:29;3.80;99.90
45207;DHT22;30950;53.086;21.576;2024-03-25T01:57:55;3.80;99.90
45207;DHT22;30950;53.086;21.576;2024-03-25T02:00:22;3.80;99.90
45207;DHT22;30950;53.086;21.576;2024-03-25T02:02:50;3.80;99.90
45207;DHT22;30950;53.086;21.576;2024-03-25T02:05:17;3.70;99.90
45207;DHT22;30950;53.086;21.576;2024-03-25T02:07:44;3.80;99.90
45207;DHT22;30950;53.086;21.576;2024-03-25T02:10:11;3.80;99.90
45207;DHT22;30950;53.086;21.576;2024-03-25T02:12:40;3.70;99.90
45207;DHT22;30950;53.086;21.576;2024-03-25T02:15:08;3.80;99.90
45207;DHT22;30950;53.086;21.576;2024-03-25T02:17:34;3.70;99.90
45207;DHT22;30950;53.086;21.576;2024-03-25T02:20:01;3.70;99.90
45207;DHT22;30950;53.086;21.576;2024-03-25T02:22:29;3.70;99.90
45207;DHT22;30950;53.086;21.576;2024-03-25T02:24:56;3.70;99.90
45207;DHT22;30950;53.086;21.576;2024-03-25T02:27:26;3.70;99.90
45207;DHT22;30950;53.086;21.576;2024-03-25T02:30:09;3.60;99.90
45207;DHT22;30950;53.086;21.576;2024-03-25T02:32:39;3.60;99.90
45207;DHT22;30950;53.086;21.576;2024-03-25T02:35:14;3.60;99.90
45207;DHT22;30950;53.086;21.576;2024-03-25T02:37:41;3.50;99.90
45207;DHT22;30950;53.086;21.576;2024-03-25T02:40:07;4.00;99.90
45207;DHT22;30950;53.086;21.576;2024-03-25T02:42:37;3.50;99.90
45207;DHT22;30950;53.086;21.576;2024-03-25T02:45:06;3.50;99.90
45207;DHT22;30950;53.086;21.576;2024-03-25T02:47:32;3.40;99.90
45207;DHT22;30950;53.086;21.576;2024-03-25T02:49:58;3.40;99.90
45207;DHT22;30950;53.086;21.576;2024-03-25T02:52:24;3.40;99.90
45207;DHT22;30950;53.086;21.576;2024-03-25T02:54:52;3.40;99.90
45207;DHT22;30950;53.086;21.576;2024-03-25T02:57:20;3.40;99.90
45207;DHT22;30950;53.086;21.576;2024-03-25T02:59:47;3.40;99.90
45207;DHT22;30950;53.086;21.576;2024-03-25T03:02:13;3.40;99.90
45207;DHT22;30950;53.086;21.576;2024-03-25T03:04:39;3.40;99.90
45207;DHT22;30950;53.086;21.576;2024-03-25T03:07:05;3.40;99.90
45207;DHT22;30950;53.086;21.576;2024-03-25T03:09:31;3.40;99.90
45207;DHT22;30950;53.086;21.576;2024-03-25T03:11:57;3.40;99.90
45207;DHT22;30950;53.086;21.576;2024-03-25T03:14:24;3.40;99.90
45207;DHT22;30950;53.086;21.576;2024-03-25T03:16:50;3.40;99.90
45207;DHT22;30950;53.086;21.576;2024-03-25T03:19:21;3.40;99.90
45207;DHT22;30950;53.086;21.576;2024-03-25T03:21:47;3.40;99.90
45207;DHT22;30950;53.086;21.576;2024-03-25T03:24:13;3.30;99.90
45207;DHT22;30950;53.086;21.576;2024-03-25T03:26:39;3.30;99.90
45207;DHT22;30950;53.086;21.576;2024-03-25T03:29:06;3.30;99.90
45207;DHT22;30950;53.086;21.576;2024-03-25T03:31:32;3.30;99.90
45207;DHT22;30950;53.086;21.576;2024-03-25T03:33:58;3.30;99.90
45207;DHT22;30950;53.086;21.576;2024-03-25T03:36:24;3.20;99.90
45207;DHT22;30950;53.086;21.576;2024-03-25T03:38:51;3.30;99.90
45207;DHT22;30950;53.086;21.576;2024-03-25T03:41:17;3.30;99.90
45207;DHT22;30950;53.086;21.576;2024-03-25T03:43:44;3.20;99.90
45207;DHT22;30950;53.086;21.576;2024-03-25T03:46:10;3.30;99.90
45207;DHT22;30950;53.086;21.576;2024-03-25T03:48:37;3.20;99.90
45207;DHT22;30950;53.086;21.576;2024-03-25T03:51:04;3.30;99.90
45207;DHT22;30950;53.086;21.576;2024-03-25T03:53:31;3.20;99.90
45207;DHT22;30950;53.086;21.576;2024-03-25T03:55:58;3.30;99.90
45207;DHT22;30950;53.086;21.576;2024-03-25T03:58:24;3.30;99.90
45207;DHT22;30950;53.086;21.576;2024-03-25T04:00:51;3.30;99.90
45207;DHT22;30950;53.086;21.576;2024-03-25T04:03:18;3.30;99.90
45207;DHT22;30950;53.086;21.576;2024-03-25T04:05:45;3.30;99.90
45207;DHT22;30950;53.086;21.576;2024-03-25T04:08:11;3.20;99.90
45207;DHT22;30950;53.086;21.576;2024-03-25T04:10:38;3.20;99.90
45207;DHT22;30950;53.086;21.576;2024-03-25T04:13:05;3.20;99.90
45207;DHT22;30950;53.086;21.576;2024-03-25T04:15:35;3.20;99.90
45207;DHT22;30950;53.086;21.576;2024-03-25T04:18:01;3.20;99.90
45207;DHT22;30950;53.086;21.576;2024-03-25T04:20:27;3.20;99.90
45207;DHT22;30950;53.086;21.576;2024-03-25T04:22:55;3.20;99.90
45207;DHT22;30950;53.086;21.576;2024-03-25T04:25:21;3.20;99.90
45207;DHT22;30950;53.086;21.576;2024-03-25T04:27:48;3.20;99.90
45207;DHT22;30950;53.086;21.576;2024-03-25T04:30:14;3.30;99.90
45207;DHT22;30950;53.086;21.576;2024-03-25T04:32:40;3.30;99.90
45207;DHT22;30950;53.086;21.576;2024-03-25T04:35:07;3.30;99.90
45207;DHT22;30950;53.086;21.576;2024-03-25T04:37:34;3.30;99.90
45207;DHT22;30950;53.086;21.576;2024-03-25T04:40:00;3.30;99.90
45207;DHT22;30950;53.086;21.576;2024-03-25T04:42:27;3.30;99.90
45207;DHT22;30950;53.086;21.576;2024-03-25T04:44:53;3.30;99.90
45207;DHT22;30950;53.086;21.576;2024-03-25T04:47:20;3.30;99.90
45207;DHT22;30950;53.086;21.576;2024-03-25T04:49:46;3.30;99.90
45207;DHT22;30950;53.086;21.576;2024-03-25T04:52:13;3.30;99.90
45207;DHT22;30950;53.086;21.576;2024-03-25T04:54:40;3.40;99.90
45207;DHT22;30950;53.086;21.576;2024-03-25T04:57:06;3.30;99.90
45207;DHT22;30950;53.086;21.576;2024-03-25T05:01:59;3.40;99.90
45207;DHT22;30950;53.086;21.576;2024-03-25T05:04:26;3.40;99.90
45207;DHT22;30950;53.086;21.576;2024-03-25T05:06:52;3.40;99.90
45207;DHT22;30950;53.086;21.576;2024-03-25T05:09:18;3.40;99.90
45207;DHT22;30950;53.086;21.576;2024-03-25T05:11:46;3.40;99.90
45207;DHT22;30950;53.086;21.576;2024-03-25T05:14:12;3.50;99.90
45207;DHT22;30950;53.086;21.576;2024-03-25T05:16:38;3.50;99.90
45207;DHT22;30950;53.086;21.576;2024-03-25T05:19:04;3.50;99.90
45207;DHT22;30950;53.086;21.576;2024-03-25T05:21:31;3.60;99.90
45207;DHT22;30950;53.086;21.576;2024-03-25T05:23:57;3.50;99.90
45207;DHT22;30950;53.086;21.576;2024-03-25T05:26:24;3.60;99.90
45207;DHT22;30950;53.086;21.576;2024-03-25T05:28:53;3.60;99.90
45207;DHT22;30950;53.086;21.576;2024-03-25T05:31:20;3.70;99.90
45207;DHT22;30950;53.086;21.576;2024-03-25T05:33:46;3.70;99.90
45207;DHT22;30950;53.086;21.576;2024-03-25T05:36:13;3.70;99.90
45207;DHT22;30950;53.086;21.576;2024-03-25T05:38:39;3.80;99.90
45207;DHT22;30950;53.086;21.576;2024-03-25T05:41:05;3.80;99.90
45207;DHT22;30950;53.086;21.576;2024-03-25T05:43:31;3.90;99.90
45207;DHT22;30950;53.086;21.576;2024-03-25T05:45:58;3.90;99.90
45207;DHT22;30950;53.086;21.576;2024-03-25T05:48:24;3.90;99.90
45207;DHT22;30950;53.086;21.576;2024-03-25T05:51:24;3.90;99.90
45207;DHT22;30950;53.086;21.576;2024-03-25T05:53:45;4.00;99.90
45207;DHT22;30950;53.086;21.576;2024-03-25T05:56:12;4.00;99.90
45207;DHT22;30950;53.086;21.576;2024-03-25T05:58:38;4.10;99.90
45207;DHT22;30950;53.086;21.576;2024-03-25T06:01:04;4.10;99.90
45207;DHT22;30950;53.086;21.576;2024-03-25T06:03:31;4.10;99.90
45207;DHT22;30950;53.086;21.576;2024-03-25T06:05:57;4.20;99.90
45207;DHT22;30950;53.086;21.576;2024-03-25T06:08:23;4.20;99.90
45207;DHT22;30950;53.086;21.576;2024-03-25T06:13:19;4.40;99.90
45207;DHT22;30950;53.086;21.576;2024-03-25T06:15:46;4.30;99.90
45207;DHT22;30950;53.086;21.576;2024-03-25T06:18:12;4.40;99.90
45207;DHT22;30950;53.086;21.576;2024-03-25T06:20:39;4.50;99.90
45207;DHT22;30950;53.086;21.576;2024-03-25T06:23:05;4.60;99.90
45207;DHT22;30950;53.086;21.576;2024-03-25T06:25:31;4.60;99.90
45207;DHT22;30950;53.086;21.576;2024-03-25T06:27:59;4.50;99.90
45207;DHT22;30950;53.086;21.576;2024-03-25T06:30:25;4.60;99.90
45207;DHT22;30950;53.086;21.576;2024-03-25T06:33:10;4.60;99.90
45207;DHT22;30950;53.086;21.576;2024-03-25T06:35:55;4.70;99.90
45207;DHT22;30950;53.086;21.576;2024-03-25T06:38:22;4.70;99.90
45207;DHT22;30950;53.086;21.576;2024-03-25T06:40:48;4.70;99.90
45207;DHT22;30950;53.086;21.576;2024-03-25T06:43:14;4.80;99.90
45207;DHT22;30950;53.086;21.576;2024-03-25T06:45:43;4.80;99.90
45207;DHT22;30950;53.086;21.576;2024-03-25T06:48:09;4.90;99.90
45207;DHT22;30950;53.086;21.576;2024-03-25T06:50:35;4.90;99.90
45207;DHT22;30950;53.086;21.576;2024-03-25T06:53:02;5.00;99.90
45207;DHT22;30950;53.086;21.576;2024-03-25T06:55:29;5.00;99.90
45207;DHT22;30950;53.086;21.576;2024-03-25T06:57:55;5.00;99.90
45207;DHT22;30950;53.086;21.576;2024-03-25T07:00:21;5.10;99.90
45207;DHT22;30950;53.086;21.576;2024-03-25T07:02:48;5.10;99.90
45207;DHT22;30950;53.086;21.576;2024-03-25T07:05:14;5.30;99.90
45207;DHT22;30950;53.086;21.576;2024-03-25T07:07:41;5.40;99.90
45207;DHT22;30950;53.086;21.576;2024-03-25T07:10:07;5.40;99.90
45207;DHT22;30950;53.086;21.576;2024-03-25T07:12:34;5.50;99.90
45207;DHT22;30950;53.086;21.576;2024-03-25T07:15:00;5.60;99.90
45207;DHT22;30950;53.086;21.576;2024-03-25T07:17:26;5.70;99.90
45207;DHT22;30950;53.086;21.576;2024-03-25T07:19:53;5.70;99.90
45207;DHT22;30950;53.086;21.576;2024-03-25T07:22:19;5.80;99.90
45207;DHT22;30950;53.086;21.576;2024-03-25T07:24:45;5.90;99.90
45207;DHT22;30950;53.086;21.576;2024-03-25T07:27:11;5.90;99.90
45207;DHT22;30950;53.086;21.576;2024-03-25T07:29:38;6.00;99.90
45207;DHT22;30950;53.086;21.576;2024-03-25T07:32:05;6.20;99.90
45207;DHT22;30950;53.086;21.576;2024-03-25T07:34:31;6.20;99.90
45207;DHT22;30950;53.086;21.576;2024-03-25T07:36:57;6.40;99.90
45207;DHT22;30950;53.086;21.576;2024-03-25T07:39:24;6.40;99.90
45207;DHT22;30950;53.086;21.576;2024-03-25T07:41:50;6.60;99.90
45207;DHT22;30950;53.086;21.576;2024-03-25T07:44:16;6.80;99.90
45207;DHT22;30950;53.086;21.576;2024-03-25T07:46:42;6.80;99.90
45207;DHT22;30950;53.086;21.576;2024-03-25T07:49:09;6.80;99.90
45207;DHT22;30950;53.086;21.576;2024-03-25T07:51:35;6.90;99.90
45207;DHT22;30950;53.086;21.576;2024-03-25T07:54:02;7.10;99.90
45207;DHT22;30950;53.086;21.576;2024-03-25T07:56:29;7.20;99.90
45207;DHT22;30950;53.086;21.576;2024-03-25T07:58:58;7.30;99.90
45207;DHT22;30950;53.086;21.576;2024-03-25T08:01:25;7.40;99.90
45207;DHT22;30950;53.086;21.576;2024-03-25T08:03:52;7.50;99.90
45207;DHT22;30950;53.086;21.576;2024-03-25T08:06:18;7.50;99.90
45207;DHT22;30950;53.086;21.576;2024-03-25T08:08:47;7.60;99.90
45207;DHT22;30950;53.086;21.576;2024-03-25T08:13:40;7.60;99.90
45207;DHT22;30950;53.086;21.576;2024-03-25T08:16:06;7.60;99.90
45207;DHT22;30950;53.086;21.576;2024-03-25T08:18:33;7.60;99.90
45207;DHT22;30950;53.086;21.576;2024-03-25T08:20:59;7.60;99.90
45207;DHT22;30950;53.086;21.576;2024-03-25T08:23:25;7.60;99.90
45207;DHT22;30950;53.086;21.576;2024-03-25T08:25:51;7.60;99.90
45207;DHT22;30950;53.086;21.576;2024-03-25T08:28:18;7.60;99.90
45207;DHT22;30950;53.086;21.576;2024-03-25T08:30:44;7.70;99.90
45207;DHT22;30950;53.086;21.576;2024-03-25T08:33:10;7.80;99.90
45207;DHT22;30950;53.086;21.576;2024-03-25T08:35:37;7.80;99.90
45207;DHT22;30950;53.086;21.576;2024-03-25T08:38:04;7.90;99.90
45207;DHT22;30950;53.086;21.576;2024-03-25T08:40:30;7.90;99.90
45207;DHT22;30950;53.086;21.576;2024-03-25T08:42:56;8.20;99.90
45207;DHT22;30950;53.086;21.576;2024-03-25T08:45:23;8.40;99.90
45207;DHT22;30950;53.086;21.576;2024-03-25T08:47:50;8.50;99.90
45207;DHT22;30950;53.086;21.576;2024-03-25T08:50:16;8.60;99.90
45207;DHT22;30950;53.086;21.576;2024-03-25T08:52:43;8.60;99.90
45207;DHT22;30950;53.086;21.576;2024-03-25T08:55:09;8.80;99.90
45207;DHT22;30950;53.086;21.576;2024-03-25T08:57:35;8.80;99.90
45207;DHT22;30950;53.086;21.576;2024-03-25T09:00:02;8.30;99.90
45207;DHT22;30950;53.086;21.576;2024-03-25T09:02:30;8.80;99.90
45207;DHT22;30950;53.086;21.576;2024-03-25T09:04:56;8.80;99.90
45207;DHT22;30950;53.086;21.576;2024-03-25T09:07:23;8.70;99.90
45207;DHT22;30950;53.086;21.576;2024-03-25T09:09:49;8.60;99.90
45207;DHT22;30950;53.086;21.576;2024-03-25T09:12:34;8.60;99.90
45207;DHT22;30950;53.086;21.576;2024-03-25T09:15:00;8.50;99.90
45207;DHT22;30950;53.086;21.576;2024-03-25T09:17:27;8.50;99.90
45207;DHT22;30950;53.086;21.576;2024-03-25T09:19:53;8.50;99.90
45207;DHT22;30950;53.086;21.576;2024-03-25T09:22:19;8.50;99.90
45207;DHT22;30950;53.086;21.576;2024-03-25T09:24:45;8.40;99.90
45207;DHT22;30950;53.086;21.576;2024-03-25T09:27:12;8.30;99.90
45207;DHT22;30950;53.086;21.576;2024-03-25T09:29:38;8.30;99.90
45207;DHT22;30950;53.086;21.576;2024-03-25T09:32:04;8.20;99.90
45207;DHT22;30950;53.086;21.576;2024-03-25T09:34:31;7.90;99.90
45207;DHT22;30950;53.086;21.576;2024-03-25T09:36:57;7.80;99.90
45207;DHT22;30950;53.086;21.576;2024-03-25T09:39:23;7.60;99.90
45207;DHT22;30950;53.086;21.576;2024-03-25T09:41:50;7.20;99.90
45207;DHT22;30950;53.086;21.576;2024-03-25T09:44:16;6.90;99.90
45207;DHT22;30950;53.086;21.576;2024-03-25T09:46:43;6.80;99.90
45207;DHT22;30950;53.086;21.576;2024-03-25T09:49:10;6.70;99.90
45207;DHT22;30950;53.086;21.576;2024-03-25T09:51:36;6.60;99.90
45207;DHT22;30950;53.086;21.576;2024-03-25T09:54:02;6.70;99.90
45207;DHT22;30950;53.086;21.576;2024-03-25T09:56:31;6.70;99.90
45207;DHT22;30950;53.086;21.576;2024-03-25T09:58:58;6.80;99.90
45207;DHT22;30950;53.086;21.576;2024-03-25T10:01:25;7.00;99.90
45207;DHT22;30950;53.086;21.576;2024-03-25T10:03:51;7.20;99.90
45207;DHT22;30950;53.086;21.576;2024-03-25T10:06:17;7.20;99.90
45207;DHT22;30950;53.086;21.576;2024-03-25T10:08:44;7.40;99.90
45207;DHT22;30950;53.086;21.576;2024-03-25T10:11:11;7.60;99.90
45207;DHT22;30950;53.086;21.576;2024-03-25T10:13:37;7.90;99.90
45207;DHT22;30950;53.086;21.576;2024-03-25T10:16:03;8.00;99.90
45207;DHT22;30950;53.086;21.576;2024-03-25T10:18:30;8.40;99.90
45207;DHT22;30950;53.086;21.576;2024-03-25T10:20:56;8.50;99.90
45207;DHT22;30950;53.086;21.576;2024-03-25T10:23:22;8.80;99.90
45207;DHT22;30950;53.086;21.576;2024-03-25T10:25:51;8.90;99.90
45207;DHT22;30950;53.086;21.576;2024-03-25T10:28:17;9.10;99.90
45207;DHT22;30950;53.086;21.576;2024-03-25T10:30:43;9.40;99.90
45207;DHT22;30950;53.086;21.576;2024-03-25T10:33:10;9.60;99.90
45207;DHT22;30950;53.086;21.576;2024-03-25T10:35:36;9.70;99.90
45207;DHT22;30950;53.086;21.576;2024-03-25T10:38:03;9.80;99.90
45207;DHT22;30950;53.086;21.576;2024-03-25T10:40:34;10.00;99.90
45207;DHT22;30950;53.086;21.576;2024-03-25T10:45:28;10.10;99.90
45207;DHT22;30950;53.086;21.576;2024-03-25T10:47:58;10.20;99.90
45207;DHT22;30950;53.086;21.576;2024-03-25T10:50:26;10.30;99.90
45207;DHT22;30950;53.086;21.576;2024-03-25T10:52:54;10.40;99.90
45207;DHT22;30950;53.086;21.576;2024-03-25T10:55:21;10.50;99.90
45207;DHT22;30950;53.086;21.576;2024-03-25T10:57:47;10.70;99.90
45207;DHT22;30950;53.086;21.576;2024-03-25T11:00:15;14.10;99.90
45207;DHT22;30950;53.086;21.576;2024-03-25T11:02:42;11.30;99.90
45207;DHT22;30950;53.086;21.576;2024-03-25T11:05:09;11.60;99.90
45207;DHT22;30950;53.086;21.576;2024-03-25T11:07:36;11.70;99.90
45207;DHT22;30950;53.086;21.576;2024-03-25T11:10:05;11.70;99.90
45207;DHT22;30950;53.086;21.576;2024-03-25T11:12:35;11.80;99.90
45207;DHT22;30950;53.086;21.576;2024-03-25T11:15:03;11.70;99.90
45207;DHT22;30950;53.086;21.576;2024-03-25T11:17:30;11.50;99.90
45207;DHT22;30950;53.086;21.576;2024-03-25T11:20:11;11.30;99.90
45207;DHT22;30950;53.086;21.576;2024-03-25T11:22:50;11.20;99.90
45207;DHT22;30950;53.086;21.576;2024-03-25T11:25:17;11.20;99.90
45207;DHT22;30950;53.086;21.576;2024-03-25T11:27:44;11.10;99.90
45207;DHT22;30950;53.086;21.576;2024-03-25T11:30:11;11.00;99.90
45207;DHT22;30950;53.086;21.576;2024-03-25T11:32:44;11.00;99.90
45207;DHT22;30950;53.086;21.576;2024-03-25T11:35:11;11.00;99.90
45207;DHT22;30950;53.086;21.576;2024-03-25T11:37:41;11.00;99.90
45207;DHT22;30950;53.086;21.576;2024-03-25T11:40:11;11.00;99.90
45207;DHT22;30950;53.086;21.576;2024-03-25T11:42:43;11.00;99.90
45207;DHT22;30950;53.086;21.576;2024-03-25T11:45:16;10.70;99.90
45207;DHT22;30950;53.086;21.576;2024-03-25T11:47:46;11.00;99.90
45207;DHT22;30950;53.086;21.576;2024-03-25T11:50:14;11.10;99.90
45207;DHT22;30950;53.086;21.576;2024-03-25T11:52:41;11.10;99.90
45207;DHT22;30950;53.086;21.576;2024-03-25T11:55:07;11.30;99.90
45207;DHT22;30950;53.086;21.576;2024-03-25T11:57:37;11.10;99.90
45207;DHT22;30950;53.086;21.576;2024-03-25T12:00:04;11.00;99.90
45207;DHT22;30950;53.086;21.576;2024-03-25T12:02:44;11.00;99.90
45207;DHT22;30950;53.086;21.576;2024-03-25T12:05:13;11.00;99.90
45207;DHT22;30950;53.086;21.576;2024-03-25T12:07:39;11.10;99.90
45207;DHT22;30950;53.086;21.576;2024-03-25T12:10:06;11.10;99.90
45207;DHT22;30950;53.086;21.576;2024-03-25T12:12:51;11.50;99.90
45207;DHT22;30950;53.086;21.576;2024-03-25T12:15:20;11.20;99.90
45207;DHT22;30950;53.086;21.576;2024-03-25T12:17:47;11.10;99.90
45207;DHT22;30950;53.086;21.576;2024-03-25T12:20:13;11.00;99.90
45207;DHT22;30950;53.086;21.576;2024-03-25T12:22:41;11.00;99.90
45207;DHT22;30950;53.086;21.576;2024-03-25T12:25:08;11.00;99.90
45207;DHT22;30950;53.086;21.576;2024-03-25T12:27:35;11.00;99.90
45207;DHT22;30950;53.086;21.576;2024-03-25T12:30:06;10.90;99.90
45207;DHT22;30950;53.086;21.576;2024-03-25T12:35:06;11.20;99.90
45207;DHT22;30950;53.086;21.576;2024-03-25T12:37:32;11.10;99.90
45207;DHT22;30950;53.086;21.576;2024-03-25T12:39:59;11.20;99.90
45207;DHT22;30950;53.086;21.576;2024-03-25T12:42:26;11.20;99.90
45207;DHT22;30950;53.086;21.576;2024-03-25T12:44:53;11.30;99.90
45207;DHT22;30950;53.086;21.576;2024-03-25T12:47:20;11.30;99.90
45207;DHT22;30950;53.086;21.576;2024-03-25T12:49:46;11.30;99.90
45207;DHT22;30950;53.086;21.576;2024-03-25T12:52:12;11.40;99.90
45207;DHT22;30950;53.086;21.576;2024-03-25T12:54:39;11.40;99.90
45207;DHT22;30950;53.086;21.576;2024-03-25T12:57:07;11.50;99.90
45207;DHT22;30950;53.086;21.576;2024-03-25T12:59:33;11.50;99.90
45207;DHT22;30950;53.086;21.576;2024-03-25T13:02:00;11.50;99.90
45207;DHT22;30950;53.086;21.576;2024-03-25T13:04:29;11.40;99.30
45207;DHT22;30950;53.086;21.576;2024-03-25T13:06:55;11.20;99.20
45207;DHT22;30950;53.086;21.576;2024-03-25T13:09:21;11.10;99.90
45207;DHT22;30950;53.086;21.576;2024-03-25T13:11:47;10.90;99.90
45207;DHT22;30950;53.086;21.576;2024-03-25T13:14:14;10.90;99.90
45207;DHT22;30950;53.086;21.576;2024-03-25T13:16:42;10.80;99.90
45207;DHT22;30950;53.086;21.576;2024-03-25T13:19:08;11.20;99.90
45207;DHT22;30950;53.086;21.576;2024-03-25T13:21:34;10.80;99.90
45207;DHT22;30950;53.086;21.576;2024-03-25T13:24:00;10.80;99.90
45207;DHT22;30950;53.086;21.576;2024-03-25T13:26:26;10.80;99.90
45207;DHT22;30950;53.086;21.576;2024-03-25T13:28:53;10.80;99.90
45207;DHT22;30950;53.086;21.576;2024-03-25T13:31:19;10.90;99.90
45207;DHT22;30950;53.086;21.576;2024-03-25T13:33:46;11.00;99.90
45207;DHT22;30950;53.086;21.576;2024-03-25T13:36:12;11.10;99.90
45207;DHT22;30950;53.086;21.576;2024-03-25T13:38:38;11.40;99.90
45207;DHT22;30950;53.086;21.576;2024-03-25T13:41:05;12.20;99.90
45207;DHT22;30950;53.086;21.576;2024-03-25T13:43:32;12.60;99.90
45207;DHT22;30950;53.086;21.576;2024-03-25T13:45:58;13.00;99.50
45207;DHT22;30950;53.086;21.576;2024-03-25T13:48:24;13.50;99.00
45207;DHT22;30950;53.086;21.576;2024-03-25T13:50:53;14.00;94.40
45207;DHT22;30950;53.086;21.576;2024-03-25T13:53:19;14.30;90.10
45207;DHT22;30950;53.086;21.576;2024-03-25T13:55:46;14.50;85.30
45207;DHT22;30950;53.086;21.576;2024-03-25T13:58:12;14.50;85.90
45207;DHT22;30950;53.086;21.576;2024-03-25T14:00:39;14.70;88.70
45207;DHT22;30950;53.086;21.576;2024-03-25T14:03:05;14.80;87.30
45207;DHT22;30950;53.086;21.576;2024-03-25T14:05:31;15.00;90.30
45207;DHT22;30950;53.086;21.576;2024-03-25T14:07:57;15.10;86.20
45207;DHT22;30950;53.086;21.576;2024-03-25T14:10:24;14.80;81.10
45207;DHT22;30950;53.086;21.576;2024-03-25T14:12:50;14.30;80.70
45207;DHT22;30950;53.086;21.576;2024-03-25T14:15:16;13.60;81.00
45207;DHT22;30950;53.086;21.576;2024-03-25T14:17:43;13.00;83.60
45207;DHT22;30950;53.086;21.576;2024-03-25T14:20:09;12.30;86.50
45207;DHT22;30950;53.086;21.576;2024-03-25T14:22:36;11.90;90.20
45207;DHT22;30950;53.086;21.576;2024-03-25T14:25:02;11.30;91.90
45207;DHT22;30950;53.086;21.576;2024-03-25T14:27:28;10.90;92.20
45207;DHT22;30950;53.086;21.576;2024-03-25T14:29:55;10.50;94.60
45207;DHT22;30950;53.086;21.576;2024-03-25T14:32:21;10.10;98.30
45207;DHT22;30950;53.086;21.576;2024-03-25T14:34:48;10.00;98.80
45207;DHT22;30950;53.086;21.576;2024-03-25T14:37:16;9.80;99.90
45207;DHT22;30950;53.086;21.576;2024-03-25T14:39:42;9.60;99.90
45207;DHT22;30950;53.086;21.576;2024-03-25T14:42:12;9.60;99.90
45207;DHT22;30950;53.086;21.576;2024-03-25T14:44:38;9.30;99.90
45207;DHT22;30950;53.086;21.576;2024-03-25T14:47:04;9.20;99.90
45207;DHT22;30950;53.086;21.576;2024-03-25T14:49:30;9.10;99.90
45207;DHT22;30950;53.086;21.576;2024-03-25T14:51:57;9.10;99.90
45207;DHT22;30950;53.086;21.576;2024-03-25T14:54:23;9.00;99.90
45207;DHT22;30950;53.086;21.576;2024-03-25T14:56:58;9.00;99.90
45207;DHT22;30950;53.086;21.576;2024-03-25T14:59:29;8.80;99.90
45207;DHT22;30950;53.086;21.576;2024-03-25T15:01:59;8.80;99.90
45207;DHT22;30950;53.086;21.576;2024-03-25T15:04:26;8.70;99.90
45207;DHT22;30950;53.086;21.576;2024-03-25T15:06:52;8.70;99.90
45207;DHT22;30950;53.086;21.576;2024-03-25T15:09:18;7.30;99.90
45207;DHT22;30950;53.086;21.576;2024-03-25T15:11:45;8.60;99.90
45207;DHT22;30950;53.086;21.576;2024-03-25T15:14:11;8.60;99.90
45207;DHT22;30950;53.086;21.576;2024-03-25T15:16:38;8.70;99.90
45207;DHT22;30950;53.086;21.576;2024-03-25T15:19:04;8.60;99.90
45207;DHT22;30950;53.086;21.576;2024-03-25T15:21:30;8.70;99.90
45207;DHT22;30950;53.086;21.576;2024-03-25T15:23:57;8.70;99.90
45207;DHT22;30950;53.086;21.576;2024-03-25T15:26:24;8.70;99.90
45207;DHT22;30950;53.086;21.576;2024-03-25T15:28:50;8.60;99.90
45207;DHT22;30950;53.086;21.576;2024-03-25T15:31:16;8.50;99.90
45207;DHT22;30950;53.086;21.576;2024-03-25T15:33:42;8.50;99.90
45207;DHT22;30950;53.086;21.576;2024-03-25T15:36:09;8.30;99.90
45207;DHT22;30950;53.086;21.576;2024-03-25T15:38:35;8.20;99.90